sensor_id;sensor_type;location;lat;lon;timestamp;pressure;altitude;pressure_sealevel;temperature;humidity
80566;BME280;69915;54.862;10.730;2023-05-07T00:00:16;102263.81;;;6.77;78.33
80566;BME280;69915;54.862;10.730;2023-05-07T00:02:47;102255.28;;;6.73;79.06
80566;BME280;69915;54.862;10.730;2023-05-07T00:05:13;102260.72;;;6.73;78.08
80566;BME280;69915;54.862;10.730;2023-05-07T00:07:38;102265.09;;;6.74;79.36
80566;BME280;69915;54.862;10.730;2023-05-07T00:10:04;102261.06;;;6.77;79.44
80566;BME280;69915;54.862;10.730;2023-05-07T00:12:32;102258.00;;;6.73;78.59
80566;BME280;69915;54.862;10.730;2023-05-07T00:15:00;102260.25;;;6.76;78.81
80566;BME280;69915;54.862;10.730;2023-05-07T00:17:25;102262.16;;;6.76;79.00
80566;BME280;69915;54.862;10.730;2023-05-07T00:19:50;102243.34;;;6.74;79.45
80566;BME280;69915;54.862;10.730;2023-05-07T00:22:16;102267.94;;;6.79;79.81
80566;BME280;69915;54.862;10.730;2023-05-07T00:24:41;102257.06;;;6.79;79.48
80566;BME280;69915;54.862;10.730;2023-05-07T00:27:07;102253.75;;;6.77;79.51
80566;BME280;69915;54.862;10.730;2023-05-07T00:29:32;102248.31;;;6.77;80.40
80566;BME280;69915;54.862;10.730;2023-05-07T00:31:58;102242.88;;;6.77;80.30
80566;BME280;69915;54.862;10.730;2023-05-07T00:34:23;102250.59;;;6.80;79.86
80566;BME280;69915;54.862;10.730;2023-05-07T00:36:49;102250.59;;;6.80;80.60
80566;BME280;69915;54.862;10.730;2023-05-07T00:39:14;102266.88;;;6.80;80.09
80566;BME280;69915;54.862;10.730;2023-05-07T00:41:40;102242.06;;;6.77;80.19
80566;BME280;69915;54.862;10.730;2023-05-07T00:44:06;102233.31;;;6.75;80.49
80566;BME280;69915;54.862;10.730;2023-05-07T00:46:32;102239.72;;;6.80;80.57
80566;BME280;69915;54.862;10.730;2023-05-07T00:48:57;102243.94;;;6.76;80.63
80566;BME280;69915;54.862;10.730;2023-05-07T00:51:25;102248.44;;;6.82;80.69
80566;BME280;69915;54.862;10.730;2023-05-07T00:53:52;102247.41;;;6.83;80.88
80566;BME280;69915;54.862;10.730;2023-05-07T00:56:18;102260.78;;;6.85;81.23
80566;BME280;69915;54.862;10.730;2023-05-07T00:58:44;102259.09;;;6.84;81.71
80566;BME280;69915;54.862;10.730;2023-05-07T01:01:09;102241.50;;;6.86;81.09
80566;BME280;69915;54.862;10.730;2023-05-07T01:03:35;102248.59;;;6.87;81.16
80566;BME280;69915;54.862;10.730;2023-05-07T01:06:01;102247.97;;;6.85;81.62
80566;BME280;69915;54.862;10.730;2023-05-07T01:08:28;102262.19;;;6.87;81.32
80566;BME280;69915;54.862;10.730;2023-05-07T01:10:56;102241.13;;;6.83;81.79
80566;BME280;69915;54.862;10.730;2023-05-07T01:13:23;102250.72;;;6.85;82.04
80566;BME280;69915;54.862;10.730;2023-05-07T01:15:49;102247.97;;;6.85;81.97
80566;BME280;69915;54.862;10.730;2023-05-07T01:18:15;102261.50;;;6.92;81.71
80566;BME280;69915;54.862;10.730;2023-05-07T01:20:41;102248.59;;;6.87;81.52
80566;BME280;69915;54.862;10.730;2023-05-07T01:23:07;102250.25;;;6.88;81.97
80566;BME280;69915;54.862;10.730;2023-05-07T01:25:34;102261.50;;;6.92;81.23
80566;BME280;69915;54.862;10.730;2023-05-07T01:28:00;102242.91;;;6.89;81.68
80566;BME280;69915;54.862;10.730;2023-05-07T01:30:27;102242.69;;;6.90;82.02
80566;BME280;69915;54.862;10.730;2023-05-07T01:33:20;102256.75;;;6.87;82.17
80566;BME280;69915;54.862;10.730;2023-05-07T01:35:46;102237.72;;;6.87;82.57
80566;BME280;69915;54.862;10.730;2023-05-07T01:38:13;102238.78;;;6.86;82.11
80566;BME280;69915;54.862;10.730;2023-05-07T01:40:39;102237.13;;;6.85;82.78
80566;BME280;69915;54.862;10.730;2023-05-07T01:43:05;102257.84;;;6.98;82.91
80566;BME280;69915;54.862;10.730;2023-05-07T01:45:32;102252.50;;;6.91;83.66
80566;BME280;69915;54.862;10.730;2023-05-07T01:47:59;102242.81;;;6.95;83.02
80566;BME280;69915;54.862;10.730;2023-05-07T01:50:25;102242.81;;;6.95;82.93
80566;BME280;69915;54.862;10.730;2023-05-07T01:52:52;102242.81;;;6.95;82.56
80566;BME280;69915;54.862;10.730;2023-05-07T01:55:17;102249.09;;;6.96;82.91
80566;BME280;69915;54.862;10.730;2023-05-07T01:57:43;102242.81;;;6.95;82.54
80566;BME280;69915;54.862;10.730;2023-05-07T02:00:09;102247.22;;;6.96;82.66
80566;BME280;69915;54.862;10.730;2023-05-07T02:02:35;102237.25;;;6.90;82.65
80566;BME280;69915;54.862;10.730;2023-05-07T02:05:00;102243.19;;;6.99;82.74
80566;BME280;69915;54.862;10.730;2023-05-07T02:07:27;102244.25;;;6.98;83.14
80566;BME280;69915;54.862;10.730;2023-05-07T02:09:53;102242.63;;;6.97;82.54
80566;BME280;69915;54.862;10.730;2023-05-07T02:12:20;102243.41;;;6.97;82.76
80566;BME280;69915;54.862;10.730;2023-05-07T02:14:46;102263.53;;;6.96;82.36
80566;BME280;69915;54.862;10.730;2023-05-07T02:17:11;102243.06;;;6.94;82.72
80566;BME280;69915;54.862;10.730;2023-05-07T02:19:37;102238.44;;;6.94;83.03
80566;BME280;69915;54.862;10.730;2023-05-07T02:22:02;102257.25;;;6.96;83.09
80566;BME280;69915;54.862;10.730;2023-05-07T02:24:27;102265.16;;;6.97;83.46
80566;BME280;69915;54.862;10.730;2023-05-07T02:26:53;102258.47;;;7.00;83.32
80566;BME280;69915;54.862;10.730;2023-05-07T02:29:18;102247.22;;;6.96;82.74
80566;BME280;69915;54.862;10.730;2023-05-07T02:31:44;102252.19;;;6.99;83.65
80566;BME280;69915;54.862;10.730;2023-05-07T02:34:09;102255.50;;;7.01;83.26
80566;BME280;69915;54.862;10.730;2023-05-07T02:36:35;102252.28;;;6.93;83.00
80566;BME280;69915;54.862;10.730;2023-05-07T02:39:00;102245.53;;;6.95;83.60
80566;BME280;69915;54.862;10.730;2023-05-07T02:41:26;102254.28;;;6.97;83.58
80566;BME280;69915;54.862;10.730;2023-05-07T02:43:53;102250.53;;;6.98;83.72
80566;BME280;69915;54.862;10.730;2023-05-07T02:46:18;102259.72;;;6.97;83.56
80566;BME280;69915;54.862;10.730;2023-05-07T02:48:44;102252.66;;;6.96;83.78
80566;BME280;69915;54.862;10.730;2023-05-07T02:51:09;102258.91;;;6.97;83.42
80566;BME280;69915;54.862;10.730;2023-05-07T02:53:35;102247.91;;;6.92;83.68
80566;BME280;69915;54.862;10.730;2023-05-07T02:56:01;102260.19;;;6.94;83.53
80566;BME280;69915;54.862;10.730;2023-05-07T02:58:27;102269.19;;;6.95;82.90
80566;BME280;69915;54.862;10.730;2023-05-07T03:00:52;102260.44;;;6.93;82.79
80566;BME280;69915;54.862;10.730;2023-05-07T03:03:20;102260.06;;;6.89;83.43
80566;BME280;69915;54.862;10.730;2023-05-07T03:05:45;102250.25;;;6.88;83.63
80566;BME280;69915;54.862;10.730;2023-05-07T03:08:11;102264.00;;;6.93;83.40
80566;BME280;69915;54.862;10.730;2023-05-07T03:10:37;102259.59;;;6.92;84.25
80566;BME280;69915;54.862;10.730;2023-05-07T03:13:03;102261.28;;;6.93;83.67
80566;BME280;69915;54.862;10.730;2023-05-07T03:15:29;102264.56;;;6.95;83.59
80566;BME280;69915;54.862;10.730;2023-05-07T03:17:55;102265.63;;;6.94;83.67
80566;BME280;69915;54.862;10.730;2023-05-07T03:20:20;102256.06;;;6.92;83.65
80566;BME280;69915;54.862;10.730;2023-05-07T03:22:46;102267.19;;;6.90;83.61
80566;BME280;69915;54.862;10.730;2023-05-07T03:25:12;102272.38;;;6.92;83.55
80566;BME280;69915;54.862;10.730;2023-05-07T03:27:37;102259.00;;;6.90;83.78
80566;BME280;69915;54.862;10.730;2023-05-07T03:30:03;102269.28;;;6.88;83.60
80566;BME280;69915;54.862;10.730;2023-05-07T03:32:29;102255.94;;;6.87;83.84
80566;BME280;69915;54.862;10.730;2023-05-07T03:34:54;102264.44;;;6.90;83.75
80566;BME280;69915;54.862;10.730;2023-05-07T03:37:20;102268.22;;;6.89;84.22
80566;BME280;69915;54.862;10.730;2023-05-07T03:39:47;102263.38;;;6.91;83.53
80566;BME280;69915;54.862;10.730;2023-05-07T03:42:12;102268.22;;;6.89;83.48
80566;BME280;69915;54.862;10.730;2023-05-07T03:44:37;102257.34;;;6.89;83.98
80566;BME280;69915;54.862;10.730;2023-05-07T03:47:03;102261.56;;;6.85;83.59
80566;BME280;69915;54.862;10.730;2023-05-07T03:49:29;102246.81;;;6.81;83.75
80566;BME280;69915;54.862;10.730;2023-05-07T03:51:54;102269.91;;;6.90;83.69
80566;BME280;69915;54.862;10.730;2023-05-07T03:54:20;102261.75;;;6.90;83.36
80566;BME280;69915;54.862;10.730;2023-05-07T03:56:46;102258.66;;;6.87;83.68
80566;BME280;69915;54.862;10.730;2023-05-07T03:59:12;102254.03;;;6.87;84.20
80566;BME280;69915;54.862;10.730;2023-05-07T04:01:38;102266.25;;;6.96;84.37
80566;BME280;69915;54.862;10.730;2023-05-07T04:04:04;102264.56;;;6.95;83.73
80566;BME280;69915;54.862;10.730;2023-05-07T04:06:29;102269.19;;;6.95;83.85
80566;BME280;69915;54.862;10.730;2023-05-07T04:08:55;102273.47;;;7.02;83.96
80566;BME280;69915;54.862;10.730;2023-05-07T04:11:21;102275.72;;;7.05;83.82
80566;BME280;69915;54.862;10.730;2023-05-07T04:13:46;102275.03;;;7.10;83.69
80566;BME280;69915;54.862;10.730;2023-05-07T04:16:12;102267.09;;;7.08;83.40
80566;BME280;69915;54.862;10.730;2023-05-07T04:18:38;102274.00;;;7.23;83.09
80566;BME280;69915;54.862;10.730;2023-05-07T04:21:03;102272.59;;;8.01;80.43
80566;BME280;69915;54.862;10.730;2023-05-07T04:23:29;102258.75;;;8.66;77.26
80566;BME280;69915;54.862;10.730;2023-05-07T04:25:54;102265.25;;;9.38;75.63
80566;BME280;69915;54.862;10.730;2023-05-07T04:28:20;102271.38;;;9.62;72.80
80566;BME280;69915;54.862;10.730;2023-05-07T04:30:46;102269.94;;;9.43;73.56
80566;BME280;69915;54.862;10.730;2023-05-07T04:33:11;102283.34;;;9.27;74.57
80566;BME280;69915;54.862;10.730;2023-05-07T04:35:37;102258.72;;;9.56;74.20
80566;BME280;69915;54.862;10.730;2023-05-07T04:38:02;102273.59;;;9.65;73.11
80566;BME280;69915;54.862;10.730;2023-05-07T04:40:28;102266.63;;;9.57;73.97
80566;BME280;69915;54.862;10.730;2023-05-07T04:42:54;102264.94;;;8.61;76.32
80566;BME280;69915;54.862;10.730;2023-05-07T04:45:19;102269.25;;;8.46;77.88
80566;BME280;69915;54.862;10.730;2023-05-07T04:47:45;102273.63;;;8.75;77.01
80566;BME280;69915;54.862;10.730;2023-05-07T04:50:10;102294.31;;;8.71;75.69
80566;BME280;69915;54.862;10.730;2023-05-07T04:52:36;102282.44;;;8.77;76.49
80566;BME280;69915;54.862;10.730;2023-05-07T04:55:02;102278.13;;;8.81;75.81
80566;BME280;69915;54.862;10.730;2023-05-07T04:57:28;102291.41;;;9.06;75.68
80566;BME280;69915;54.862;10.730;2023-05-07T04:59:54;102278.56;;;9.35;73.69
80566;BME280;69915;54.862;10.730;2023-05-07T05:02:19;102286.66;;;9.96;72.45
80566;BME280;69915;54.862;10.730;2023-05-07T05:04:44;102274.28;;;10.49;69.83
80566;BME280;69915;54.862;10.730;2023-05-07T05:07:10;102288.13;;;11.17;67.34
80566;BME280;69915;54.862;10.730;2023-05-07T05:09:35;102294.41;;;10.64;68.86
80566;BME280;69915;54.862;10.730;2023-05-07T05:12:01;102303.25;;;10.11;70.90
80566;BME280;69915;54.862;10.730;2023-05-07T05:14:26;102292.78;;;9.87;71.88
80566;BME280;69915;54.862;10.730;2023-05-07T05:16:51;102295.88;;;10.28;71.08
80566;BME280;69915;54.862;10.730;2023-05-07T05:19:17;102295.94;;;10.55;69.86
80566;BME280;69915;54.862;10.730;2023-05-07T05:21:42;102303.50;;;10.10;72.54
80566;BME280;69915;54.862;10.730;2023-05-07T05:24:08;102279.13;;;10.68;71.91
80566;BME280;69915;54.862;10.730;2023-05-07T05:26:34;102288.16;;;11.81;66.37
80566;BME280;69915;54.862;10.730;2023-05-07T05:29:00;102304.41;;;10.54;69.11
80566;BME280;69915;54.862;10.730;2023-05-07T05:31:25;102291.34;;;10.17;71.20
80566;BME280;69915;54.862;10.730;2023-05-07T05:33:51;102299.94;;;10.48;70.64
80566;BME280;69915;54.862;10.730;2023-05-07T05:36:16;102303.38;;;11.08;68.21
80566;BME280;69915;54.862;10.730;2023-05-07T05:38:42;102296.34;;;11.76;65.18
80566;BME280;69915;54.862;10.730;2023-05-07T05:41:08;102301.59;;;11.51;66.89
80566;BME280;69915;54.862;10.730;2023-05-07T05:43:33;102288.13;;;11.17;67.91
80566;BME280;69915;54.862;10.730;2023-05-07T05:45:59;102311.16;;;11.48;67.45
80566;BME280;69915;54.862;10.730;2023-05-07T05:48:25;102296.69;;;11.53;67.71
80566;BME280;69915;54.862;10.730;2023-05-07T05:50:51;102307.03;;;11.45;67.28
80566;BME280;69915;54.862;10.730;2023-05-07T05:53:16;102285.03;;;11.35;67.64
80566;BME280;69915;54.862;10.730;2023-05-07T05:55:42;102300.31;;;11.31;68.20
80566;BME280;69915;54.862;10.730;2023-05-07T05:58:08;102328.69;;;10.72;69.25
80566;BME280;69915;54.862;10.730;2023-05-07T06:00:34;102304.19;;;10.82;70.73
80566;BME280;69915;54.862;10.730;2023-05-07T06:02:59;102324.41;;;11.03;68.78
80566;BME280;69915;54.862;10.730;2023-05-07T06:05:25;102332.50;;;10.71;70.31
80566;BME280;69915;54.862;10.730;2023-05-07T06:07:50;102322.06;;;10.68;71.58
80566;BME280;69915;54.862;10.730;2023-05-07T06:10:16;102342.22;;;10.40;71.79
80566;BME280;69915;54.862;10.730;2023-05-07T06:12:41;102328.31;;;10.42;72.50
80566;BME280;69915;54.862;10.730;2023-05-07T06:15:07;102338.91;;;10.38;70.75
80566;BME280;69915;54.862;10.730;2023-05-07T06:17:32;102322.22;;;10.01;72.18
80566;BME280;69915;54.862;10.730;2023-05-07T06:19:58;102338.75;;;10.45;72.67
80566;BME280;69915;54.862;10.730;2023-05-07T06:22:23;102327.22;;;10.86;71.40
80566;BME280;69915;54.862;10.730;2023-05-07T06:24:48;102339.50;;;10.62;72.29
80566;BME280;69915;54.862;10.730;2023-05-07T06:27:14;102324.75;;;10.63;72.46
80566;BME280;69915;54.862;10.730;2023-05-07T06:29:39;102319.31;;;11.16;72.91
80566;BME280;69915;54.862;10.730;2023-05-07T06:34:33;102324.28;;;11.19;71.22
80566;BME280;69915;54.862;10.730;2023-05-07T06:36:59;102325.94;;;11.20;71.96
80566;BME280;69915;54.862;10.730;2023-05-07T06:39:24;102325.84;;;11.10;71.64
80566;BME280;69915;54.862;10.730;2023-05-07T06:41:50;102329.47;;;11.42;69.97
80566;BME280;69915;54.862;10.730;2023-05-07T06:44:15;102332.19;;;11.42;71.53
80566;BME280;69915;54.862;10.730;2023-05-07T06:46:41;102342.22;;;11.32;70.11
80566;BME280;69915;54.862;10.730;2023-05-07T06:49:07;102330.78;;;11.13;71.88
80566;BME280;69915;54.862;10.730;2023-05-07T06:51:32;102317.50;;;11.22;71.93
80566;BME280;69915;54.862;10.730;2023-05-07T06:53:58;102333.09;;;11.21;70.47
80566;BME280;69915;54.862;10.730;2023-05-07T06:56:23;102336.25;;;10.65;71.99
80566;BME280;69915;54.862;10.730;2023-05-07T06:58:49;102333.69;;;10.80;73.33
80566;BME280;69915;54.862;10.730;2023-05-07T07:01:15;102339.41;;;11.22;71.86
80566;BME280;69915;54.862;10.730;2023-05-07T07:03:40;102343.84;;;11.28;69.84
80566;BME280;69915;54.862;10.730;2023-05-07T07:06:05;102358.94;;;11.09;69.95
80566;BME280;69915;54.862;10.730;2023-05-07T07:08:31;102365.31;;;11.14;71.78
80566;BME280;69915;54.862;10.730;2023-05-07T07:10:57;102361.13;;;11.07;71.28
80566;BME280;69915;54.862;10.730;2023-05-07T07:13:23;102344.25;;;11.15;71.17
80566;BME280;69915;54.862;10.730;2023-05-07T07:15:48;102342.84;;;11.12;71.21
80566;BME280;69915;54.862;10.730;2023-05-07T07:18:14;102343.38;;;11.09;70.90
80566;BME280;69915;54.862;10.730;2023-05-07T07:20:39;102334.59;;;11.34;71.96
80566;BME280;69915;54.862;10.730;2023-05-07T07:23:05;102345.69;;;11.49;71.13
80566;BME280;69915;54.862;10.730;2023-05-07T07:25:30;102333.75;;;11.33;72.32
80566;BME280;69915;54.862;10.730;2023-05-07T07:27:56;102344.72;;;11.33;70.93
80566;BME280;69915;54.862;10.730;2023-05-07T07:30:21;102346.00;;;11.53;71.59
80566;BME280;69915;54.862;10.730;2023-05-07T07:32:47;102345.16;;;11.52;70.94
80566;BME280;69915;54.862;10.730;2023-05-07T07:35:12;102335.84;;;11.80;69.82
80566;BME280;69915;54.862;10.730;2023-05-07T07:37:38;102332.03;;;12.85;69.02
80566;BME280;69915;54.862;10.730;2023-05-07T07:40:04;102345.06;;;13.15;66.64
80566;BME280;69915;54.862;10.730;2023-05-07T07:42:29;102354.91;;;12.43;65.61
80566;BME280;69915;54.862;10.730;2023-05-07T07:44:55;102333.03;;;12.53;67.41
80566;BME280;69915;54.862;10.730;2023-05-07T07:47:20;102339.06;;;12.55;65.19
80566;BME280;69915;54.862;10.730;2023-05-07T07:49:52;102338.97;;;13.02;62.71
80566;BME280;69915;54.862;10.730;2023-05-07T07:52:35;102335.50;;;13.83;59.67
80566;BME280;69915;54.862;10.730;2023-05-07T07:55:01;102338.81;;;13.64;60.78
80566;BME280;69915;54.862;10.730;2023-05-07T07:57:27;102336.06;;;13.64;60.66
80566;BME280;69915;54.862;10.730;2023-05-07T07:59:52;102344.03;;;14.06;60.48
80566;BME280;69915;54.862;10.730;2023-05-07T08:02:17;102331.13;;;13.41;64.07
80566;BME280;69915;54.862;10.730;2023-05-07T08:04:43;102342.91;;;13.52;62.28
80566;BME280;69915;54.862;10.730;2023-05-07T08:07:09;102333.31;;;13.59;61.78
80566;BME280;69915;54.862;10.730;2023-05-07T08:09:37;102334.34;;;14.29;62.39
80566;BME280;69915;54.862;10.730;2023-05-07T08:12:02;102346.44;;;14.48;61.67
80566;BME280;69915;54.862;10.730;2023-05-07T08:14:28;102357.22;;;14.09;60.56
80566;BME280;69915;54.862;10.730;2023-05-07T08:16:54;102344.03;;;14.06;62.29
80566;BME280;69915;54.862;10.730;2023-05-07T08:19:20;102355.00;;;13.91;60.02
80566;BME280;69915;54.862;10.730;2023-05-07T08:21:47;102337.72;;;13.55;64.04
80566;BME280;69915;54.862;10.730;2023-05-07T08:24:16;102347.06;;;13.80;60.88
80566;BME280;69915;54.862;10.730;2023-05-07T08:26:42;102346.63;;;12.95;62.48
80566;BME280;69915;54.862;10.730;2023-05-07T08:29:07;102338.81;;;13.75;62.42
80566;BME280;69915;54.862;10.730;2023-05-07T08:31:33;102341.28;;;13.41;61.70
80566;BME280;69915;54.862;10.730;2023-05-07T08:33:58;102352.53;;;13.34;64.54
80566;BME280;69915;54.862;10.730;2023-05-07T08:36:25;102339.03;;;13.23;62.12
80566;BME280;69915;54.862;10.730;2023-05-07T08:38:51;102344.94;;;12.84;64.62
80566;BME280;69915;54.862;10.730;2023-05-07T08:41:16;102343.22;;;13.81;62.82
80566;BME280;69915;54.862;10.730;2023-05-07T08:43:47;102359.41;;;12.65;63.69
80566;BME280;69915;54.862;10.730;2023-05-07T08:46:17;102337.41;;;13.27;65.18
80566;BME280;69915;54.862;10.730;2023-05-07T08:48:43;102333.31;;;13.80;60.33
80566;BME280;69915;54.862;10.730;2023-05-07T08:51:12;102330.50;;;14.30;62.20
80566;BME280;69915;54.862;10.730;2023-05-07T08:53:40;102327.25;;;14.03;60.70
80566;BME280;69915;54.862;10.730;2023-05-07T08:56:08;102344.31;;;13.70;60.92
80566;BME280;69915;54.862;10.730;2023-05-07T08:58:33;102327.13;;;12.97;64.64
80566;BME280;69915;54.862;10.730;2023-05-07T09:01:03;102337.56;;;12.95;65.87
80566;BME280;69915;54.862;10.730;2023-05-07T09:03:30;102345.88;;;13.15;63.53
80566;BME280;69915;54.862;10.730;2023-05-07T09:05:56;102328.91;;;13.84;65.26
80566;BME280;69915;54.862;10.730;2023-05-07T09:08:27;102330.97;;;14.62;62.80
80566;BME280;69915;54.862;10.730;2023-05-07T09:10:53;102340.13;;;14.23;62.19
80566;BME280;69915;54.862;10.730;2023-05-07T09:13:19;102350.91;;;13.89;61.51
80566;BME280;69915;54.862;10.730;2023-05-07T09:15:44;102347.88;;;13.85;64.38
80566;BME280;69915;54.862;10.730;2023-05-07T09:18:10;102340.47;;;13.60;64.82
80566;BME280;69915;54.862;10.730;2023-05-07T09:20:39;102338.22;;;14.18;63.31
80566;BME280;69915;54.862;10.730;2023-05-07T09:23:06;102348.47;;;14.87;60.77
80566;BME280;69915;54.862;10.730;2023-05-07T09:25:34;102342.81;;;15.17;60.07
80566;BME280;69915;54.862;10.730;2023-05-07T09:28:00;102363.38;;;14.81;58.04
80566;BME280;69915;54.862;10.730;2023-05-07T09:30:32;102349.03;;;14.84;59.35
80566;BME280;69915;54.862;10.730;2023-05-07T09:32:59;102347.31;;;15.47;59.04
80566;BME280;69915;54.862;10.730;2023-05-07T09:35:26;102345.31;;;14.54;57.41
80566;BME280;69915;54.862;10.730;2023-05-07T09:37:59;102344.88;;;15.40;57.58
80566;BME280;69915;54.862;10.730;2023-05-07T09:40:26;102340.41;;;15.05;57.87
80566;BME280;69915;54.862;10.730;2023-05-07T09:42:53;102341.75;;;15.08;56.88
80566;BME280;69915;54.862;10.730;2023-05-07T09:45:28;102344.50;;;15.08;57.16
80566;BME280;69915;54.862;10.730;2023-05-07T09:47:58;102332.28;;;14.75;59.51
80566;BME280;69915;54.862;10.730;2023-05-07T09:50:27;102340.09;;;15.12;57.18
80566;BME280;69915;54.862;10.730;2023-05-07T09:52:54;102350.75;;;15.23;54.82
80566;BME280;69915;54.862;10.730;2023-05-07T09:55:20;102355.81;;;14.27;57.12
80566;BME280;69915;54.862;10.730;2023-05-07T09:57:48;102355.53;;;14.24;59.47
80566;BME280;69915;54.862;10.730;2023-05-07T10:00:15;102337.44;;;13.97;61.49
80566;BME280;69915;54.862;10.730;2023-05-07T10:02:43;102360.81;;;13.80;59.25
80566;BME280;69915;54.862;10.730;2023-05-07T10:05:14;102358.03;;;14.05;58.76
80566;BME280;69915;54.862;10.730;2023-05-07T10:07:40;102348.69;;;14.21;59.43
80566;BME280;69915;54.862;10.730;2023-05-07T10:10:06;102340.28;;;14.77;59.75
80566;BME280;69915;54.862;10.730;2023-05-07T10:12:32;102350.59;;;15.05;54.56
80566;BME280;69915;54.862;10.730;2023-05-07T10:15:05;102354.47;;;14.99;58.91
80566;BME280;69915;54.862;10.730;2023-05-07T10:17:34;102345.56;;;15.17;58.96
80566;BME280;69915;54.862;10.730;2023-05-07T10:20:01;102344.72;;;15.65;57.42
80566;BME280;69915;54.862;10.730;2023-05-07T10:22:27;102335.91;;;15.63;56.58
80566;BME280;69915;54.862;10.730;2023-05-07T10:24:54;102355.00;;;15.89;56.52
80566;BME280;69915;54.862;10.730;2023-05-07T10:27:23;102352.28;;;15.84;55.93
80566;BME280;69915;54.862;10.730;2023-05-07T10:32:47;102347.19;;;16.24;53.47
80566;BME280;69915;54.862;10.730;2023-05-07T10:35:20;102358.84;;;15.59;52.03
80566;BME280;69915;54.862;10.730;2023-05-07T10:37:46;102354.47;;;16.39;52.02
80566;BME280;69915;54.862;10.730;2023-05-07T10:40:13;102366.09;;;15.78;52.24
80566;BME280;69915;54.862;10.730;2023-05-07T10:42:39;102359.47;;;16.66;50.86
80566;BME280;69915;54.862;10.730;2023-05-07T10:45:18;102353.78;;;16.00;50.59
80566;BME280;69915;54.862;10.730;2023-05-07T10:48:16;102357.13;;;15.97;51.73
80566;BME280;69915;54.862;10.730;2023-05-07T10:50:45;102340.59;;;16.97;51.03
80566;BME280;69915;54.862;10.730;2023-05-07T10:55:41;102361.00;;;16.77;51.58
80566;BME280;69915;54.862;10.730;2023-05-07T10:58:23;102356.84;;;15.98;49.24
80566;BME280;69915;54.862;10.730;2023-05-07T11:00:49;102357.53;;;16.14;50.99
80566;BME280;69915;54.862;10.730;2023-05-07T11:03:14;102352.75;;;15.57;52.62
80566;BME280;69915;54.862;10.730;2023-05-07T11:05:41;102351.19;;;16.13;53.39
80566;BME280;69915;54.862;10.730;2023-05-07T11:08:08;102357.16;;;16.73;50.17
80566;BME280;69915;54.862;10.730;2023-05-07T11:13:16;102344.34;;;16.06;51.19
80566;BME280;69915;54.862;10.730;2023-05-07T11:15:46;102352.81;;;15.52;51.87
80566;BME280;69915;54.862;10.730;2023-05-07T11:18:15;102355.19;;;15.68;52.17
80566;BME280;69915;54.862;10.730;2023-05-07T11:20:47;102333.78;;;17.08;49.97
80566;BME280;69915;54.862;10.730;2023-05-07T11:26:07;102350.31;;;15.89;51.52
80566;BME280;69915;54.862;10.730;2023-05-07T11:28:43;102365.19;;;15.59;52.33
80566;BME280;69915;54.862;10.730;2023-05-07T11:31:09;102350.78;;;16.77;51.26
80566;BME280;69915;54.862;10.730;2023-05-07T11:33:36;102359.56;;;16.32;46.26
80566;BME280;69915;54.862;10.730;2023-05-07T11:36:03;102352.16;;;15.99;51.54
80566;BME280;69915;54.862;10.730;2023-05-07T11:38:35;102345.78;;;16.27;52.19
80566;BME280;69915;54.862;10.730;2023-05-07T11:41:00;102364.28;;;15.98;48.69
80566;BME280;69915;54.862;10.730;2023-05-07T11:43:27;102351.19;;;16.37;49.85
80566;BME280;69915;54.862;10.730;2023-05-07T11:45:53;102362.63;;;16.02;51.01
80566;BME280;69915;54.862;10.730;2023-05-07T11:48:18;102351.19;;;16.13;50.75
80566;BME280;69915;54.862;10.730;2023-05-07T11:50:52;102343.50;;;16.63;48.93
80566;BME280;69915;54.862;10.730;2023-05-07T11:53:19;102386.28;;;16.08;50.35
80566;BME280;69915;54.862;10.730;2023-05-07T11:55:45;102358.63;;;15.50;51.39
80566;BME280;69915;54.862;10.730;2023-05-07T11:58:12;102341.41;;;15.68;53.21
80566;BME280;69915;54.862;10.730;2023-05-07T12:00:38;102355.84;;;15.45;49.59
80566;BME280;69915;54.862;10.730;2023-05-07T12:03:04;102356.94;;;15.44;49.59
80566;BME280;69915;54.862;10.730;2023-05-07T12:05:30;102357.13;;;15.19;52.76
80566;BME280;69915;54.862;10.730;2023-05-07T12:07:58;102352.47;;;15.14;50.96
80566;BME280;69915;54.862;10.730;2023-05-07T12:10:24;102349.09;;;15.71;50.31
80566;BME280;69915;54.862;10.730;2023-05-07T12:12:50;102356.84;;;15.64;54.39
80566;BME280;69915;54.862;10.730;2023-05-07T12:15:17;102338.50;;;15.45;51.29
80566;BME280;69915;54.862;10.730;2023-05-07T12:17:43;102354.53;;;15.38;50.57
80566;BME280;69915;54.862;10.730;2023-05-07T12:20:09;102361.03;;;15.08;51.57
80566;BME280;69915;54.862;10.730;2023-05-07T12:22:36;102344.91;;;16.08;51.39
80566;BME280;69915;54.862;10.730;2023-05-07T12:25:01;102348.31;;;15.95;52.61
80566;BME280;69915;54.862;10.730;2023-05-07T12:27:28;102337.13;;;16.39;50.74
80566;BME280;69915;54.862;10.730;2023-05-07T12:29:53;102338.03;;;16.81;47.59
80566;BME280;69915;54.862;10.730;2023-05-07T12:32:20;102338.13;;;17.14;49.35
80566;BME280;69915;54.862;10.730;2023-05-07T12:34:49;102350.44;;;16.60;48.31
80566;BME280;69915;54.862;10.730;2023-05-07T12:37:16;102343.75;;;16.66;47.27
80566;BME280;69915;54.862;10.730;2023-05-07T12:39:47;102342.63;;;16.86;50.71
80566;BME280;69915;54.862;10.730;2023-05-07T12:42:19;102345.41;;;16.39;49.76
80566;BME280;69915;54.862;10.730;2023-05-07T12:44:46;102336.66;;;16.55;50.46
80566;BME280;69915;54.862;10.730;2023-05-07T12:47:12;102343.94;;;16.94;49.61
80566;BME280;69915;54.862;10.730;2023-05-07T12:49:38;102349.25;;;17.09;48.90
80566;BME280;69915;54.862;10.730;2023-05-07T12:52:04;102348.03;;;16.49;46.30